sensor_id;sensor_type;location;lat;lon;timestamp;pressure;altitude;pressure_sealevel;temperature;humidity
75401;BME280;63974;47.538;18.972;2023-04-10T00:02:51;100966.44;;;2.98;81.59
75401;BME280;63974;47.538;18.972;2023-04-10T00:05:54;100961.81;;;3.03;81.24
75401;BME280;63974;47.538;18.972;2023-04-10T00:08:58;100957.41;;;3.05;81.15
75401;BME280;63974;47.538;18.972;2023-04-10T00:12:01;100948.56;;;3.09;80.62
75401;BME280;63974;47.538;18.972;2023-04-10T00:15:04;100953.41;;;3.01;81.67
75401;BME280;63974;47.538;18.972;2023-04-10T00:18:07;100949.41;;;2.97;82.00
75401;BME280;63974;47.538;18.972;2023-04-10T00:21:10;100954.09;;;3.03;81.85
75401;BME280;63974;47.538;18.972;2023-04-10T00:24:14;100952.69;;;2.99;81.92
75401;BME280;63974;47.538;18.972;2023-04-10T00:27:17;100952.78;;;2.98;82.41
75401;BME280;63974;47.538;18.972;2023-04-10T00:30:20;100952.38;;;2.91;82.43
75401;BME280;63974;47.538;18.972;2023-04-10T00:33:23;100956.50;;;2.94;82.41
75401;BME280;63974;47.538;18.972;2023-04-10T00:36:26;100946.75;;;2.86;82.72
75401;BME280;63974;47.538;18.972;2023-04-10T00:39:29;100945.13;;;2.85;82.52
75401;BME280;63974;47.538;18.972;2023-04-10T00:42:32;100947.47;;;2.88;82.66
75401;BME280;63974;47.538;18.972;2023-04-10T00:45:35;100946.34;;;2.92;82.82
75401;BME280;63974;47.538;18.972;2023-04-10T00:48:38;100946.34;;;2.80;83.38
75401;BME280;63974;47.538;18.972;2023-04-10T00:51:41;100948.91;;;2.80;83.43
75401;BME280;63974;47.538;18.972;2023-04-10T00:54:45;100941.00;;;2.83;83.42
75401;BME280;63974;47.538;18.972;2023-04-10T00:57:48;100937.72;;;2.81;83.06
75401;BME280;63974;47.538;18.972;2023-04-10T01:00:51;100944.19;;;2.99;82.32
75401;BME280;63974;47.538;18.972;2023-04-10T01:03:54;100939.56;;;2.91;82.39
75401;BME280;63974;47.538;18.972;2023-04-10T01:07:50;100941.72;;;2.85;82.76
75401;BME280;63974;47.538;18.972;2023-04-10T01:10:56;100940.50;;;2.78;82.05
75401;BME280;63974;47.538;18.972;2023-04-10T01:14:36;100940.50;;;2.78;82.27
75401;BME280;63974;47.538;18.972;2023-04-10T01:17:51;100936.81;;;2.82;82.32
75401;BME280;63974;47.538;18.972;2023-04-10T01:20:58;100936.59;;;2.85;82.47
75401;BME280;63974;47.538;18.972;2023-04-10T01:24:06;100934.38;;;2.80;82.74
75401;BME280;63974;47.538;18.972;2023-04-10T01:30:56;100932.09;;;2.76;83.71
75401;BME280;63974;47.538;18.972;2023-04-10T01:34:07;100926.47;;;2.71;84.24
75401;BME280;63974;47.538;18.972;2023-04-10T01:37:15;100928.41;;;2.67;84.39
75401;BME280;63974;47.538;18.972;2023-04-10T01:40:19;100921.03;;;2.63;84.72
75401;BME280;63974;47.538;18.972;2023-04-10T01:43:25;100909.88;;;2.64;83.89
75401;BME280;63974;47.538;18.972;2023-04-10T01:46:29;100922.66;;;2.76;83.24
75401;BME280;63974;47.538;18.972;2023-04-10T01:49:33;100910.97;;;2.72;83.66
75401;BME280;63974;47.538;18.972;2023-04-10T01:52:39;100917.53;;;2.76;83.17
75401;BME280;63974;47.538;18.972;2023-04-10T01:55:52;100918.59;;;2.74;82.78
75401;BME280;63974;47.538;18.972;2023-04-10T01:58:56;100918.34;;;2.64;83.77
75401;BME280;63974;47.538;18.972;2023-04-10T02:01:59;100909.97;;;2.62;84.00
75401;BME280;63974;47.538;18.972;2023-04-10T02:05:03;100912.53;;;2.62;84.28
75401;BME280;63974;47.538;18.972;2023-04-10T02:08:17;100911.72;;;2.62;84.23
75401;BME280;63974;47.538;18.972;2023-04-10T02:11:46;100913.22;;;2.64;83.77
75401;BME280;63974;47.538;18.972;2023-04-10T02:14:52;100903.69;;;2.66;83.62
75401;BME280;63974;47.538;18.972;2023-04-10T02:17:58;100894.38;;;2.65;82.99
75401;BME280;63974;47.538;18.972;2023-04-10T02:21:02;100902.78;;;2.55;83.67
75401;BME280;63974;47.538;18.972;2023-04-10T02:24:05;100891.81;;;2.53;83.64
75401;BME280;63974;47.538;18.972;2023-04-10T02:27:08;100896.00;;;2.66;83.06
75401;BME280;63974;47.538;18.972;2023-04-10T02:30:11;100897.97;;;2.63;83.16
75401;BME280;63974;47.538;18.972;2023-04-10T02:33:15;100901.06;;;2.55;83.60
75401;BME280;63974;47.538;18.972;2023-04-10T02:36:18;100892.72;;;2.64;83.44
75401;BME280;63974;47.538;18.972;2023-04-10T02:39:21;100898.06;;;2.61;83.63
75401;BME280;63974;47.538;18.972;2023-04-10T02:42:26;100887.09;;;2.59;83.96
75401;BME280;63974;47.538;18.972;2023-04-10T02:45:33;100897.44;;;2.58;84.05
75401;BME280;63974;47.538;18.972;2023-04-10T02:48:36;100898.16;;;2.60;84.28
75401;BME280;63974;47.538;18.972;2023-04-10T02:51:39;100891.69;;;2.54;84.46
75401;BME280;63974;47.538;18.972;2023-04-10T02:54:42;100889.47;;;2.50;85.16
75401;BME280;63974;47.538;18.972;2023-04-10T02:57:45;100881.03;;;2.48;85.09
75401;BME280;63974;47.538;18.972;2023-04-10T03:00:49;100883.91;;;2.56;84.79
75401;BME280;63974;47.538;18.972;2023-04-10T03:04:02;100886.88;;;2.62;84.72
75401;BME280;63974;47.538;18.972;2023-04-10T03:07:11;100881.16;;;2.59;84.59
75401;BME280;63974;47.538;18.972;2023-04-10T03:10:14;100893.97;;;2.59;84.90
75401;BME280;63974;47.538;18.972;2023-04-10T03:13:17;100893.47;;;2.54;84.87
75401;BME280;63974;47.538;18.972;2023-04-10T03:16:20;100887.31;;;2.56;84.70
75401;BME280;63974;47.538;18.972;2023-04-10T03:19:23;100889.88;;;2.56;84.93
75401;BME280;63974;47.538;18.972;2023-04-10T03:22:28;100891.72;;;2.67;85.04
75401;BME280;63974;47.538;18.972;2023-04-10T03:25:34;100894.88;;;2.70;84.75
75401;BME280;63974;47.538;18.972;2023-04-10T03:28:38;100883.94;;;2.68;84.72
75401;BME280;63974;47.538;18.972;2023-04-10T03:31:44;100893.66;;;2.76;84.47
75401;BME280;63974;47.538;18.972;2023-04-10T03:34:46;100896.81;;;2.79;84.50
75401;BME280;63974;47.538;18.972;2023-04-10T03:37:50;100893.44;;;2.79;84.29
75401;BME280;63974;47.538;18.972;2023-04-10T03:40:52;100888.94;;;2.82;83.98
75401;BME280;63974;47.538;18.972;2023-04-10T03:43:58;100896.63;;;2.82;83.98
75401;BME280;63974;47.538;18.972;2023-04-10T03:47:03;100891.50;;;2.82;84.18
75401;BME280;63974;47.538;18.972;2023-04-10T03:50:06;100891.59;;;2.81;84.45
75401;BME280;63974;47.538;18.972;2023-04-10T03:53:16;100900.19;;;2.80;84.44
75401;BME280;63974;47.538;18.972;2023-04-10T03:56:20;100899.72;;;2.75;84.48
75401;BME280;63974;47.538;18.972;2023-04-10T03:59:23;100900.41;;;2.77;84.74
75401;BME280;63974;47.538;18.972;2023-04-10T04:02:40;100893.75;;;2.74;85.04
75401;BME280;63974;47.538;18.972;2023-04-10T04:05:45;100894.84;;;2.83;84.00
75401;BME280;63974;47.538;18.972;2023-04-10T04:08:59;100898.56;;;2.79;84.44
75401;BME280;63974;47.538;18.972;2023-04-10T04:12:19;100897.03;;;2.76;83.92
75401;BME280;63974;47.538;18.972;2023-04-10T04:15:41;100899.78;;;2.86;83.44
75401;BME280;63974;47.538;18.972;2023-04-10T04:19:04;100907.50;;;2.86;83.81
75401;BME280;63974;47.538;18.972;2023-04-10T04:22:14;100902.75;;;2.92;83.41
75401;BME280;63974;47.538;18.972;2023-04-10T04:25:36;100909.91;;;3.00;83.59
75401;BME280;63974;47.538;18.972;2023-04-10T04:28:57;100898.91;;;2.98;82.21
75401;BME280;63974;47.538;18.972;2023-04-10T04:32:27;100892.28;;;2.95;82.30
75401;BME280;63974;47.538;18.972;2023-04-10T04:35:36;100909.69;;;3.03;83.18
75401;BME280;63974;47.538;18.972;2023-04-10T04:39:02;100916.38;;;3.05;83.27
75401;BME280;63974;47.538;18.972;2023-04-10T04:42:23;100914.38;;;3.21;82.27
75401;BME280;63974;47.538;18.972;2023-04-10T04:45:39;100923.38;;;3.27;81.57
75401;BME280;63974;47.538;18.972;2023-04-10T04:49:20;100919.44;;;3.34;81.25
75401;BME280;63974;47.538;18.972;2023-04-10T04:52:42;100925.59;;;3.44;81.28
75401;BME280;63974;47.538;18.972;2023-04-10T04:56:06;100930.78;;;3.55;80.95
75401;BME280;63974;47.538;18.972;2023-04-10T04:59:22;100934.88;;;3.57;80.71
75401;BME280;63974;47.538;18.972;2023-04-10T05:02:40;100937.28;;;3.71;80.46
75401;BME280;63974;47.538;18.972;2023-04-10T05:06:03;100944.38;;;3.68;80.54
75401;BME280;63974;47.538;18.972;2023-04-10T05:09:32;100947.22;;;3.76;80.29
75401;BME280;63974;47.538;18.972;2023-04-10T05:13:01;100951.91;;;3.82;80.67
75401;BME280;63974;47.538;18.972;2023-04-10T05:16:30;100950.66;;;3.87;80.51
75401;BME280;63974;47.538;18.972;2023-04-10T05:19:49;100951.31;;;4.02;80.11
75401;BME280;63974;47.538;18.972;2023-04-10T05:23:11;100951.13;;;4.16;79.57
75401;BME280;63974;47.538;18.972;2023-04-10T05:26:20;100954.75;;;4.24;79.64
75401;BME280;63974;47.538;18.972;2023-04-10T05:29:46;100959.09;;;4.24;80.01
75401;BME280;63974;47.538;18.972;2023-04-10T05:33:22;100963.44;;;4.34;79.72
75401;BME280;63974;47.538;18.972;2023-04-10T05:36:48;100969.97;;;4.27;80.11
75401;BME280;63974;47.538;18.972;2023-04-10T05:39:58;100966.25;;;4.31;80.43
75401;BME280;63974;47.538;18.972;2023-04-10T05:43:01;100965.09;;;4.46;80.62
75401;BME280;63974;47.538;18.972;2023-04-10T05:46:30;100970.28;;;4.68;80.36
75401;BME280;63974;47.538;18.972;2023-04-10T05:50:08;100980.25;;;4.83;80.33
75401;BME280;63974;47.538;18.972;2023-04-10T05:53:31;100968.22;;;4.95;80.04
75401;BME280;63974;47.538;18.972;2023-04-10T05:56:52;100972.16;;;5.10;79.50
75401;BME280;63974;47.538;18.972;2023-04-10T06:00:21;100972.75;;;5.24;79.25
75401;BME280;63974;47.538;18.972;2023-04-10T06:03:43;100969.13;;;5.38;79.11
75401;BME280;63974;47.538;18.972;2023-04-10T06:06:46;100961.59;;;5.46;78.60
75401;BME280;63974;47.538;18.972;2023-04-10T06:09:49;100965.06;;;5.67;78.88
75401;BME280;63974;47.538;18.972;2023-04-10T06:12:52;100956.47;;;5.77;77.97
75401;BME280;63974;47.538;18.972;2023-04-10T06:15:57;100963.41;;;5.88;78.03
75401;BME280;63974;47.538;18.972;2023-04-10T06:19:00;100963.56;;;6.07;76.55
75401;BME280;63974;47.538;18.972;2023-04-10T06:22:04;100963.81;;;6.24;76.79
75401;BME280;63974;47.538;18.972;2023-04-10T06:25:07;100963.97;;;6.43;75.71
75401;BME280;63974;47.538;18.972;2023-04-10T06:28:10;100956.97;;;6.54;76.47
75401;BME280;63974;47.538;18.972;2023-04-10T06:31:14;100961.31;;;6.74;75.70
75401;BME280;63974;47.538;18.972;2023-04-10T06:34:18;100962.19;;;6.84;75.20
75401;BME280;63974;47.538;18.972;2023-04-10T06:37:31;100961.06;;;7.07;73.63
75401;BME280;63974;47.538;18.972;2023-04-10T06:40:36;100952.78;;;7.13;73.84
75401;BME280;63974;47.538;18.972;2023-04-10T06:43:39;100966.13;;;7.18;74.10
75401;BME280;63974;47.538;18.972;2023-04-10T06:46:42;100966.28;;;7.26;71.80
75401;BME280;63974;47.538;18.972;2023-04-10T06:49:45;100963.88;;;7.44;71.95
75401;BME280;63974;47.538;18.972;2023-04-10T06:52:48;100957.09;;;7.52;72.01
75401;BME280;63974;47.538;18.972;2023-04-10T06:55:50;100959.31;;;7.76;70.35
75401;BME280;63974;47.538;18.972;2023-04-10T06:58:53;100963.53;;;7.86;70.40
75401;BME280;63974;47.538;18.972;2023-04-10T07:01:56;100952.00;;;8.19;69.68
75401;BME280;63974;47.538;18.972;2023-04-10T07:04:59;100968.31;;;8.10;68.85
75401;BME280;63974;47.538;18.972;2023-04-10T07:08:03;100966.44;;;8.21;68.38
75401;BME280;63974;47.538;18.972;2023-04-10T07:11:05;100959.19;;;8.44;68.82
75401;BME280;63974;47.538;18.972;2023-04-10T07:14:08;100968.47;;;8.37;67.87
75401;BME280;63974;47.538;18.972;2023-04-10T07:17:11;100969.69;;;8.23;67.02
75401;BME280;63974;47.538;18.972;2023-04-10T07:20:14;100964.25;;;8.36;68.00
75401;BME280;63974;47.538;18.972;2023-04-10T07:23:16;100962.44;;;8.55;66.71
75401;BME280;63974;47.538;18.972;2023-04-10T07:26:21;100966.53;;;8.58;67.19
75401;BME280;63974;47.538;18.972;2023-04-10T07:29:24;100966.53;;;8.94;66.91
75401;BME280;63974;47.538;18.972;2023-04-10T07:32:27;100969.00;;;8.86;65.79
75401;BME280;63974;47.538;18.972;2023-04-10T07:35:30;100965.53;;;9.14;66.56
75401;BME280;63974;47.538;18.972;2023-04-10T07:38:33;100962.16;;;9.04;66.31
75401;BME280;63974;47.538;18.972;2023-04-10T07:41:36;100959.50;;;9.13;65.39
75401;BME280;63974;47.538;18.972;2023-04-10T07:44:38;100961.94;;;8.88;64.80
75401;BME280;63974;47.538;18.972;2023-04-10T07:47:41;100964.22;;;9.27;64.24
75401;BME280;63974;47.538;18.972;2023-04-10T07:50:44;100967.16;;;9.15;64.76
75401;BME280;63974;47.538;18.972;2023-04-10T07:53:47;100963.69;;;9.24;64.56
75401;BME280;63974;47.538;18.972;2023-04-10T07:56:51;100950.16;;;9.30;64.09
75401;BME280;63974;47.538;18.972;2023-04-10T07:59:55;100959.31;;;9.24;64.98
75401;BME280;63974;47.538;18.972;2023-04-10T08:02:58;100953.03;;;9.54;63.36
75401;BME280;63974;47.538;18.972;2023-04-10T08:06:01;100949.56;;;9.63;64.03
75401;BME280;63974;47.538;18.972;2023-04-10T08:09:04;100953.03;;;9.71;64.24
75401;BME280;63974;47.538;18.972;2023-04-10T08:12:07;100950.31;;;10.08;63.37
75401;BME280;63974;47.538;18.972;2023-04-10T08:15:10;100952.63;;;9.93;62.05
75401;BME280;63974;47.538;18.972;2023-04-10T08:18:13;100954.03;;;9.88;60.31
75401;BME280;63974;47.538;18.972;2023-04-10T08:21:16;100949.97;;;10.03;61.45
75401;BME280;63974;47.538;18.972;2023-04-10T08:24:19;100957.34;;;10.15;61.26
75401;BME280;63974;47.538;18.972;2023-04-10T08:27:24;100958.31;;;10.32;60.96
75401;BME280;63974;47.538;18.972;2023-04-10T08:30:27;100956.22;;;10.35;58.71
75401;BME280;63974;47.538;18.972;2023-04-10T08:33:30;100953.88;;;10.67;58.44
75401;BME280;63974;47.538;18.972;2023-04-10T08:36:33;100955.63;;;10.92;58.47
75401;BME280;63974;47.538;18.972;2023-04-10T08:39:36;100955.50;;;10.76;56.65
75401;BME280;63974;47.538;18.972;2023-04-10T08:42:39;100946.00;;;10.85;56.85
75401;BME280;63974;47.538;18.972;2023-04-10T08:45:43;100941.63;;;10.85;57.89
75401;BME280;63974;47.538;18.972;2023-04-10T08:49:01;100942.56;;;11.09;57.47
75401;BME280;63974;47.538;18.972;2023-04-10T08:52:07;100942.31;;;11.36;54.54
75401;BME280;63974;47.538;18.972;2023-04-10T08:55:12;100933.69;;;11.36;54.21
75401;BME280;63974;47.538;18.972;2023-04-10T08:58:16;100925.44;;;11.40;53.66
75401;BME280;63974;47.538;18.972;2023-04-10T09:01:20;100925.84;;;11.61;56.67
75401;BME280;63974;47.538;18.972;2023-04-10T09:04:24;100923.19;;;11.45;52.68
75401;BME280;63974;47.538;18.972;2023-04-10T09:07:27;100916.59;;;11.91;53.44
75401;BME280;63974;47.538;18.972;2023-04-10T09:10:30;100917.91;;;12.19;51.68
75401;BME280;63974;47.538;18.972;2023-04-10T09:13:41;100922.78;;;11.74;52.06
75401;BME280;63974;47.538;18.972;2023-04-10T09:16:45;100922.44;;;11.85;51.99
75401;BME280;63974;47.538;18.972;2023-04-10T09:19:57;100921.97;;;12.29;51.85
75401;BME280;63974;47.538;18.972;2023-04-10T09:23:00;100916.25;;;12.42;50.62
75401;BME280;63974;47.538;18.972;2023-04-10T09:26:31;100918.56;;;12.29;48.85
75401;BME280;63974;47.538;18.972;2023-04-10T09:29:45;100927.81;;;12.39;49.03
75401;BME280;63974;47.538;18.972;2023-04-10T09:32:51;100892.91;;;12.64;51.00
75401;BME280;63974;47.538;18.972;2023-04-10T09:35:57;100904.75;;;12.99;48.58
75401;BME280;63974;47.538;18.972;2023-04-10T09:39:03;100902.94;;;12.91;48.31
75401;BME280;63974;47.538;18.972;2023-04-10T09:42:06;100893.59;;;12.50;49.85
75401;BME280;63974;47.538;18.972;2023-04-10T09:45:10;100905.25;;;12.94;48.93
75401;BME280;63974;47.538;18.972;2023-04-10T09:48:13;100898.09;;;12.80;49.60
75401;BME280;63974;47.538;18.972;2023-04-10T09:51:33;100893.63;;;13.05;46.45
75401;BME280;63974;47.538;18.972;2023-04-10T09:54:36;100877.19;;;13.57;48.82
75401;BME280;63974;47.538;18.972;2023-04-10T09:57:39;100881.34;;;13.88;44.59
75401;BME280;63974;47.538;18.972;2023-04-10T10:00:47;100883.66;;;13.38;45.21
75401;BME280;63974;47.538;18.972;2023-04-10T10:03:52;100877.13;;;13.87;44.29
75401;BME280;63974;47.538;18.972;2023-04-10T10:06:55;100882.91;;;13.97;44.84
75401;BME280;63974;47.538;18.972;2023-04-10T10:10:01;100873.84;;;14.08;43.07
75401;BME280;63974;47.538;18.972;2023-04-10T10:13:05;100872.31;;;14.36;43.88
75401;BME280;63974;47.538;18.972;2023-04-10T10:16:20;100869.97;;;14.55;41.85
75401;BME280;63974;47.538;18.972;2023-04-10T10:19:30;100865.00;;;14.09;40.86
75401;BME280;63974;47.538;18.972;2023-04-10T10:22:35;100854.13;;;14.42;41.74
75401;BME280;63974;47.538;18.972;2023-04-10T10:25:38;100852.19;;;14.65;42.42
75401;BME280;63974;47.538;18.972;2023-04-10T10:28:43;100853.81;;;14.81;42.23
75401;BME280;63974;47.538;18.972;2023-04-10T10:31:48;100856.75;;;13.83;43.56
75401;BME280;63974;47.538;18.972;2023-04-10T10:34:52;100847.97;;;14.79;41.85
75401;BME280;63974;47.538;18.972;2023-04-10T10:37:55;100835.09;;;15.13;41.42
75401;BME280;63974;47.538;18.972;2023-04-10T10:41:08;100840.91;;;14.94;41.24
75401;BME280;63974;47.538;18.972;2023-04-10T10:44:25;100834.34;;;15.19;42.27
75401;BME280;63974;47.538;18.972;2023-04-10T10:47:32;100853.38;;;13.97;42.32
75401;BME280;63974;47.538;18.972;2023-04-10T10:50:54;100836.50;;;14.22;42.89
75401;BME280;63974;47.538;18.972;2023-04-10T10:54:00;100828.16;;;13.89;43.97
75401;BME280;63974;47.538;18.972;2023-04-10T10:57:45;100844.53;;;13.83;43.66
75401;BME280;63974;47.538;18.972;2023-04-10T11:03:52;100827.25;;;14.48;42.69
75401;BME280;63974;47.538;18.972;2023-04-10T11:06:55;100834.81;;;13.92;41.58
75401;BME280;63974;47.538;18.972;2023-04-10T11:09:58;100819.66;;;14.68;38.49
75401;BME280;63974;47.538;18.972;2023-04-10T11:13:15;100816.03;;;14.98;39.06
75401;BME280;63974;47.538;18.972;2023-04-10T11:16:19;100810.34;;;15.30;39.84
75401;BME280;63974;47.538;18.972;2023-04-10T11:19:23;100814.63;;;14.37;40.83
75401;BME280;63974;47.538;18.972;2023-04-10T11:22:27;100813.00;;;13.85;42.70
75401;BME280;63974;47.538;18.972;2023-04-10T11:25:52;100823.06;;;13.29;43.40
75401;BME280;63974;47.538;18.972;2023-04-10T11:28:57;100815.13;;;13.00;44.20
75401;BME280;63974;47.538;18.972;2023-04-10T11:32:02;100805.69;;;13.43;43.61
75401;BME280;63974;47.538;18.972;2023-04-10T11:35:06;100794.81;;;14.43;41.54
75401;BME280;63974;47.538;18.972;2023-04-10T11:38:12;100796.09;;;15.18;39.10
75401;BME280;63974;47.538;18.972;2023-04-10T11:41:15;100796.19;;;14.39;40.58
75401;BME280;63974;47.538;18.972;2023-04-10T11:47:27;100791.09;;;14.08;41.08
75401;BME280;63974;47.538;18.972;2023-04-10T11:50:30;100788.00;;;13.90;42.37
75401;BME280;63974;47.538;18.972;2023-04-10T11:53:38;100772.59;;;14.82;39.46
75401;BME280;63974;47.538;18.972;2023-04-10T11:56:43;100770.03;;;15.03;38.53
75401;BME280;63974;47.538;18.972;2023-04-10T11:59:49;100764.38;;;15.42;37.79
75401;BME280;63974;47.538;18.972;2023-04-10T12:02:52;100769.88;;;15.11;38.50
75401;BME280;63974;47.538;18.972;2023-04-10T12:05:55;100763.47;;;15.56;37.71
75401;BME280;63974;47.538;18.972;2023-04-10T12:08:58;100750.88;;;15.93;37.94
75401;BME280;63974;47.538;18.972;2023-04-10T12:12:05;100754.72;;;16.31;37.04
75401;BME280;63974;47.538;18.972;2023-04-10T12:15:27;100760.34;;;15.04;37.93
75401;BME280;63974;47.538;18.972;2023-04-10T12:18:31;100756.06;;;14.96;37.38
75401;BME280;63974;47.538;18.972;2023-04-10T12:21:37;100749.22;;;15.58;35.35
75401;BME280;63974;47.538;18.972;2023-04-10T12:24:51;100737.25;;;15.49;35.85
75401;BME280;63974;47.538;18.972;2023-04-10T12:27:55;100733.50;;;14.95;35.72
75401;BME280;63974;47.538;18.972;2023-04-10T12:30:58;100734.34;;;14.60;39.09
75401;BME280;63974;47.538;18.972;2023-04-10T12:34:02;100738.47;;;14.69;38.19
75401;BME280;63974;47.538;18.972;2023-04-10T12:37:07;100723.38;;;15.49;37.37
75401;BME280;63974;47.538;18.972;2023-04-10T12:40:11;100719.44;;;16.27;34.90
75401;BME280;63974;47.538;18.972;2023-04-10T12:43:38;100713.22;;;15.67;36.25
75401;BME280;63974;47.538;18.972;2023-04-10T12:46:42;100728.13;;;14.61;35.01
75401;BME280;63974;47.538;18.972;2023-04-10T12:50:19;100713.19;;;14.76;35.05
75401;BME280;63974;47.538;18.972;2023-04-10T12:53:23;100716.34;;;14.72;35.96
75401;BME280;63974;47.538;18.972;2023-04-10T12:56:26;100706.66;;;15.29;34.64
75401;BME280;63974;47.538;18.972;2023-04-10T12:59:29;100703.22;;;15.49;32.22
75401;BME280;63974;47.538;18.972;2023-04-10T13:02:32;100702.56;;;15.68;35.41
75401;BME280;63974;47.538;18.972;2023-04-10T13:05:35;100697.56;;;15.25;34.22
75401;BME280;63974;47.538;18.972;2023-04-10T13:08:38;100692.84;;;15.14;34.86
75401;BME280;63974;47.538;18.972;2023-04-10T13:11:41;100691.63;;;15.58;34.33
75401;BME280;63974;47.538;18.972;2023-04-10T13:14:45;100688.53;;;15.75;34.52
75401;BME280;63974;47.538;18.972;2023-04-10T13:17:48;100687.16;;;15.52;33.45
75401;BME280;63974;47.538;18.972;2023-04-10T13:20:51;100676.00;;;15.71;34.34
75401;BME280;63974;47.538;18.972;2023-04-10T13:23:54;100678.28;;;15.05;36.27
75401;BME280;63974;47.538;18.972;2023-04-10T13:26:57;100695.03;;;14.68;37.05
75401;BME280;63974;47.538;18.972;2023-04-10T13:30:00;100677.47;;;14.83;36.09
75401;BME280;63974;47.538;18.972;2023-04-10T13:33:03;100672.22;;;14.62;36.59
75401;BME280;63974;47.538;18.972;2023-04-10T13:36:06;100673.94;;;15.12;37.16
75401;BME280;63974;47.538;18.972;2023-04-10T13:39:09;100674.06;;;14.62;38.35
75401;BME280;63974;47.538;18.972;2023-04-10T13:42:12;100666.84;;;14.64;38.35
75401;BME280;63974;47.538;18.972;2023-04-10T13:45:15;100665.50;;;14.53;39.47
75401;BME280;63974;47.538;18.972;2023-04-10T13:48:19;100667.97;;;14.97;38.98
75401;BME280;63974;47.538;18.972;2023-04-10T13:51:31;100666.94;;;15.40;37.38
75401;BME280;63974;47.538;18.972;2023-04-10T13:54:34;100653.38;;;15.57;37.55
75401;BME280;63974;47.538;18.972;2023-04-10T13:57:37;100643.50;;;15.59;37.35
75401;BME280;63974;47.538;18.972;2023-04-10T14:00:43;100645.16;;;15.33;36.46
75401;BME280;63974;47.538;18.972;2023-04-10T14:03:46;100649.34;;;15.06;36.51
75401;BME280;63974;47.538;18.972;2023-04-10T14:06:49;100641.00;;;14.96;37.15
75401;BME280;63974;47.538;18.972;2023-04-10T14:09:53;100645.03;;;14.36;39.45
75401;BME280;63974;47.538;18.972;2023-04-10T14:12:56;100631.59;;;14.10;39.76
75401;BME280;63974;47.538;18.972;2023-04-10T14:15:58;100628.13;;;14.03;42.22
75401;BME280;63974;47.538;18.972;2023-04-10T14:19:02;100631.03;;;13.79;42.50
75401;BME280;63974;47.538;18.972;2023-04-10T14:22:05;100635.72;;;13.69;40.80
75401;BME280;63974;47.538;18.972;2023-04-10T14:25:08;100622.47;;;13.85;41.02
75401;BME280;63974;47.538;18.972;2023-04-10T14:28:15;100616.94;;;14.09;41.45
75401;BME280;63974;47.538;18.972;2023-04-10T14:31:21;100612.25;;;14.04;40.29
75401;BME280;63974;47.538;18.972;2023-04-10T14:34:24;100614.25;;;14.17;41.37
75401;BME280;63974;47.538;18.972;2023-04-10T14:37:27;100610.56;;;14.68;40.77
75401;BME280;63974;47.538;18.972;2023-04-10T14:40:29;100610.50;;;14.61;39.59
75401;BME280;63974;47.538;18.972;2023-04-10T14:43:32;100607.25;;;14.38;38.42
75401;BME280;63974;47.538;18.972;2023-04-10T14:46:35;100604.09;;;15.12;38.34
75401;BME280;63974;47.538;18.972;2023-04-10T14:49:39;100599.50;;;15.75;37.46
75401;BME280;63974;47.538;18.972;2023-04-10T14:52:42;100599.53;;;14.93;38.07
75401;BME280;63974;47.538;18.972;2023-04-10T14:55:45;100597.78;;;15.28;37.06
75401;BME280;63974;47.538;18.972;2023-04-10T14:58:48;100590.47;;;15.84;36.29
75401;BME280;63974;47.538;18.972;2023-04-10T15:01:51;100589.31;;;15.26;36.52
75401;BME280;63974;47.538;18.972;2023-04-10T15:04:55;100586.47;;;14.93;37.51
75401;BME280;63974;47.538;18.972;2023-04-10T15:07:58;100585.47;;;14.52;38.62
75401;BME280;63974;47.538;18.972;2023-04-10T15:11:01;100588.47;;;14.49;38.85
75401;BME280;63974;47.538;18.972;2023-04-10T15:14:06;100587.66;;;14.70;38.50
75401;BME280;63974;47.538;18.972;2023-04-10T15:17:10;100591.03;;;14.64;40.76
75401;BME280;63974;47.538;18.972;2023-04-10T15:20:13;100587.47;;;14.71;40.05
75401;BME280;63974;47.538;18.972;2023-04-10T15:23:16;100577.59;;;14.67;40.46
75401;BME280;63974;47.538;18.972;2023-04-10T15:26:18;100578.66;;;14.16;40.64
75401;BME280;63974;47.538;18.972;2023-04-10T15:29:22;100571.09;;;14.21;41.01
75401;BME280;63974;47.538;18.972;2023-04-10T15:32:25;100561.94;;;14.25;41.03
75401;BME280;63974;47.538;18.972;2023-04-10T15:35:28;100566.09;;;14.05;41.56
75401;BME280;63974;47.538;18.972;2023-04-10T15:38:35;100572.41;;;13.96;40.92
75401;BME280;63974;47.538;18.972;2023-04-10T15:41:38;100569.53;;;13.91;40.57
75401;BME280;63974;47.538;18.972;2023-04-10T15:44:41;100560.41;;;14.01;40.39
75401;BME280;63974;47.538;18.972;2023-04-10T15:47:48;100561.34;;;13.94;40.37
75401;BME280;63974;47.538;18.972;2023-04-10T15:50:52;100555.72;;;13.47;41.71
75401;BME280;63974;47.538;18.972;2023-04-10T15:53:55;100557.16;;;13.49;42.17
75401;BME280;63974;47.538;18.972;2023-04-10T15:56:58;100557.91;;;13.29;42.25
75401;BME280;63974;47.538;18.972;2023-04-10T16:00:01;100553.38;;;13.23;42.42
75401;BME280;63974;47.538;18.972;2023-04-10T16:03:06;100555.81;;;12.96;43.81
75401;BME280;63974;47.538;18.972;2023-04-10T16:06:09;100559.03;;;13.12;44.10
75401;BME280;63974;47.538;18.972;2023-04-10T16:09:12;100549.97;;;13.23;44.19
75401;BME280;63974;47.538;18.972;2023-04-10T16:12:27;100558.69;;;13.01;44.43
75401;BME280;63974;47.538;18.972;2023-04-10T16:15:33;100549.38;;;12.84;45.33
75401;BME280;63974;47.538;18.972;2023-04-10T16:18:37;100555.00;;;12.73;46.14
75401;BME280;63974;47.538;18.972;2023-04-10T16:21:40;100548.59;;;12.61;46.75
75401;BME280;63974;47.538;18.972;2023-04-10T16:24:44;100560.78;;;12.60;46.85